createdAt,value
2018-10-05T00:02:00.696Z,11.35
2018-10-05T00:04:30.324Z,11.33
2018-10-05T00:06:59.979Z,11.40
2018-10-05T00:09:29.631Z,11.46
2018-10-05T00:11:59.311Z,11.61
2018-10-05T00:14:28.950Z,11.51
2018-10-05T00:16:58.596Z,11.53
2018-10-05T00:19:28.223Z,11.43
2018-10-05T00:21:57.876Z,11.44
2018-10-05T00:24:27.493Z,11.47
2018-10-05T00:26:57.216Z,11.48
2018-10-05T00:29:26.951Z,11.44
2018-10-05T00:31:56.608Z,11.33
2018-10-05T00:34:26.260Z,11.40
2018-10-05T00:36:55.920Z,11.41
2018-10-05T00:39:25.540Z,11.39
2018-10-05T00:41:55.188Z,11.44
2018-10-05T00:44:24.856Z,11.31
2018-10-05T00:46:54.508Z,11.29
2018-10-05T00:49:24.129Z,11.28
2018-10-05T00:51:53.795Z,11.26
2018-10-05T00:54:23.420Z,11.18
2018-10-05T00:56:53.089Z,11.28
2018-10-05T00:59:22.712Z,11.11
2018-10-05T01:01:52.444Z,11.12
2018-10-05T01:04:22.047Z,11.06
2018-10-05T01:06:51.769Z,11.07
2018-10-05T01:09:21.399Z,11.03
2018-10-05T01:11:51.064Z,11.06
2018-10-05T01:14:20.688Z,10.95
2018-10-05T01:16:50.345Z,11.15
2018-10-05T01:19:19.971Z,11.01
2018-10-05T01:21:49.616Z,10.98
2018-10-05T01:24:19.247Z,10.97
2018-10-05T01:26:48.883Z,10.90
2018-10-05T01:29:18.512Z,10.88
2018-10-05T01:31:48.156Z,10.97
2018-10-05T01:34:17.802Z,10.92
2018-10-05T01:36:47.436Z,10.91
2018-10-05T01:39:17.057Z,10.88
2018-10-05T01:41:46.696Z,10.81
2018-10-05T01:44:16.320Z,10.84
2018-10-05T01:46:45.996Z,10.88
2018-10-05T01:49:15.631Z,10.81
2018-10-05T01:51:45.288Z,10.78
2018-10-05T01:54:14.904Z,10.73
2018-10-05T01:56:44.621Z,10.65
2018-10-05T01:59:14.260Z,10.59
2018-10-05T02:01:43.892Z,10.58
2018-10-05T02:04:13.565Z,10.48
2018-10-05T02:06:43.193Z,10.48
2018-10-05T02:09:12.847Z,10.49
2018-10-05T02:11:42.480Z,10.67
2018-10-05T02:14:12.137Z,10.61
2018-10-05T02:16:41.776Z,10.64
2018-10-05T02:19:11.446Z,10.63
2018-10-05T02:21:41.073Z,10.58
2018-10-05T02:24:10.736Z,10.62
2018-10-05T02:26:40.360Z,10.67
2018-10-05T02:29:10.009Z,10.65
2018-10-05T02:31:39.631Z,10.63
2018-10-05T02:34:09.295Z,10.57
2018-10-05T02:36:38.933Z,10.59
2018-10-05T02:39:10.553Z,10.56
2018-10-05T02:41:40.271Z,10.65
2018-10-05T02:44:10.253Z,10.70
2018-10-05T02:46:39.959Z,10.70
2018-10-05T02:49:09.624Z,10.75
2018-10-05T02:51:39.269Z,10.71
2018-10-05T02:54:08.932Z,10.68
2018-10-05T02:56:38.604Z,10.68
2018-10-05T02:59:08.276Z,10.62
2018-10-05T03:01:48.917Z,10.56
2018-10-05T03:04:18.584Z,10.55
2018-10-05T03:06:48.260Z,10.54
2018-10-05T03:09:17.997Z,10.47
2018-10-05T03:11:47.619Z,10.37
2018-10-05T03:14:17.308Z,10.35
2018-10-05T03:16:46.943Z,10.26
2018-10-05T03:19:16.591Z,10.27
2018-10-05T03:21:46.216Z,10.29
2018-10-05T03:24:15.872Z,10.38
2018-10-05T03:26:45.513Z,10.38
2018-10-05T03:29:15.172Z,10.37
2018-10-05T03:31:44.807Z,10.35
2018-10-05T03:34:14.464Z,10.34
2018-10-05T03:36:44.083Z,10.27
2018-10-05T03:39:13.746Z,10.32
2018-10-05T03:41:43.388Z,10.29
2018-10-05T03:44:13.078Z,10.29
2018-10-05T03:46:42.712Z,10.22
2018-10-05T03:49:12.353Z,10.18
2018-10-05T03:51:41.980Z,10.20
2018-10-05T03:54:11.621Z,10.26
2018-10-05T03:56:41.284Z,10.27
2018-10-05T03:59:10.944Z,10.33
2018-10-05T04:01:40.572Z,10.42
2018-10-05T04:04:10.220Z,10.40
2018-10-05T04:06:39.844Z,10.43
2018-10-05T04:09:10.645Z,10.41
2018-10-05T04:11:40.290Z,10.35
2018-10-05T04:14:09.948Z,10.36
2018-10-05T04:16:39.592Z,10.33
2018-10-05T04:19:09.236Z,10.30
2018-10-05T04:21:38.981Z,10.28
2018-10-05T04:24:08.679Z,10.32
2018-10-05T04:26:38.332Z,10.29
2018-10-05T04:29:07.987Z,10.31
2018-10-05T04:31:37.614Z,10.30
2018-10-05T04:34:07.293Z,10.20
2018-10-05T04:36:36.924Z,10.21
2018-10-05T04:39:07.888Z,10.16
2018-10-05T04:41:37.516Z,10.13
2018-10-05T04:44:07.216Z,10.14
2018-10-05T04:46:36.856Z,10.18
2018-10-05T04:49:06.509Z,10.24
2018-10-05T04:51:36.160Z,10.28
2018-10-05T04:54:05.795Z,10.31
2018-10-05T04:56:35.585Z,10.25
2018-10-05T04:59:05.142Z,10.22
2018-10-05T05:01:34.779Z,10.20
2018-10-05T05:04:04.436Z,10.23
2018-10-05T05:06:34.080Z,10.18
2018-10-05T05:09:04.169Z,10.17
2018-10-05T05:11:33.848Z,10.10
2018-10-05T05:14:03.489Z,10.12
2018-10-05T05:16:33.149Z,10.14
2018-10-05T05:19:02.813Z,10.13
2018-10-05T05:21:32.473Z,10.12
2018-10-05T05:24:02.089Z,10.18
2018-10-05T05:26:31.780Z,10.19
2018-10-05T05:29:01.409Z,10.16
2018-10-05T05:31:31.058Z,10.15
2018-10-05T05:34:00.744Z,10.23
2018-10-05T05:36:30.372Z,10.16
2018-10-05T05:38:59.999Z,10.25
2018-10-05T05:41:29.664Z,10.15
2018-10-05T05:43:59.297Z,10.11
2018-10-05T05:46:28.981Z,10.09
2018-10-05T05:48:58.612Z,10.14
2018-10-05T05:51:28.283Z,10.20
2018-10-05T05:53:58.300Z,10.32
2018-10-05T05:56:28.364Z,10.28
2018-10-05T05:58:57.983Z,10.29
2018-10-05T06:01:27.636Z,10.31
2018-10-05T06:03:57.297Z,10.27
2018-10-05T06:06:26.977Z,10.40
2018-10-05T06:08:56.613Z,10.40
2018-10-05T06:11:26.264Z,10.41
2018-10-05T06:13:55.880Z,10.43
2018-10-05T06:16:25.602Z,10.54
2018-10-05T06:18:55.224Z,10.52
2018-10-05T06:21:25.020Z,10.57
2018-10-05T06:23:54.614Z,10.61
2018-10-05T06:26:24.300Z,10.67
2018-10-05T06:28:53.948Z,10.71
2018-10-05T06:31:23.616Z,10.80
2018-10-05T06:33:53.258Z,10.80
2018-10-05T06:36:22.937Z,10.78
2018-10-05T06:38:52.562Z,10.87
2018-10-05T06:41:22.215Z,10.84
2018-10-05T06:43:52.269Z,10.89
2018-10-05T06:46:21.944Z,10.90
2018-10-05T06:48:51.585Z,10.96
2018-10-05T06:51:21.260Z,10.98
2018-10-05T06:53:50.880Z,11.05
2018-10-05T06:56:20.559Z,11.11
2018-10-05T06:58:50.201Z,11.15
2018-10-05T07:01:20.315Z,11.25
2018-10-05T07:03:49.943Z,11.27
2018-10-05T07:06:19.620Z,11.36
2018-10-05T07:08:49.252Z,11.37
2018-10-05T07:11:18.931Z,11.47
2018-10-05T07:13:48.604Z,11.58
2018-10-05T07:16:18.316Z,11.65
2018-10-05T07:18:47.951Z,11.68
2018-10-05T07:21:17.639Z,11.69
2018-10-05T07:23:47.236Z,11.79
2018-10-05T07:26:16.900Z,11.91
2018-10-05T07:28:46.614Z,11.99
2018-10-05T07:31:16.210Z,12.11
2018-10-05T07:33:45.841Z,12.09
2018-10-05T07:36:15.520Z,12.15
2018-10-05T07:38:45.176Z,12.26
2018-10-05T07:41:14.868Z,12.37
2018-10-05T07:43:44.501Z,12.41
2018-10-05T07:46:14.184Z,12.56
2018-10-05T07:48:43.808Z,12.66
2018-10-05T07:51:13.431Z,12.69
2018-10-05T07:53:43.096Z,12.84
2018-10-05T07:56:12.928Z,12.88
2018-10-05T07:58:42.660Z,12.91
2018-10-05T08:01:12.714Z,12.95
2018-10-05T08:03:42.345Z,13.07
2018-10-05T08:06:11.985Z,13.14
2018-10-05T08:08:41.667Z,13.21
2018-10-05T08:11:11.304Z,13.26
2018-10-05T08:13:40.940Z,13.28
2018-10-05T08:16:10.620Z,13.43
2018-10-05T08:18:40.256Z,13.62
2018-10-05T08:21:09.948Z,13.79
2018-10-05T08:23:39.607Z,13.88
2018-10-05T08:26:09.252Z,13.95
2018-10-05T08:28:38.892Z,14.24
2018-10-05T08:31:08.632Z,14.30
2018-10-05T08:33:38.292Z,14.37
2018-10-05T08:36:08.236Z,14.59
2018-10-05T08:38:37.848Z,14.77
2018-10-05T08:41:07.492Z,14.80
2018-10-05T08:43:37.160Z,14.95
2018-10-05T08:46:06.828Z,15.15
2018-10-05T08:48:36.458Z,15.24
2018-10-05T08:51:06.256Z,15.28
2018-10-05T08:53:35.872Z,15.42
2018-10-05T08:56:05.504Z,15.60
2018-10-05T08:58:35.199Z,15.76
2018-10-05T09:01:04.829Z,15.93
2018-10-05T09:03:34.460Z,15.90
2018-10-05T09:06:04.178Z,16.08
2018-10-05T09:08:33.802Z,16.11
2018-10-05T09:11:03.424Z,16.28
2018-10-05T09:13:33.087Z,16.54
2018-10-05T09:16:02.716Z,16.61
2018-10-05T09:18:32.369Z,16.75
2018-10-05T09:21:02.048Z,16.89
2018-10-05T09:23:31.688Z,16.99
2018-10-05T09:26:01.324Z,17.13
2018-10-05T09:28:31.050Z,17.23
2018-10-05T09:31:00.668Z,17.29
2018-10-05T09:33:30.296Z,17.53
2018-10-05T09:36:00.032Z,17.61
2018-10-05T09:38:29.657Z,17.69
2018-10-05T09:40:59.308Z,17.82
2018-10-05T09:43:29.068Z,17.92
2018-10-05T09:45:58.740Z,17.94
2018-10-05T09:48:28.371Z,18.13
2018-10-05T09:50:58.367Z,17.96
2018-10-05T09:53:28.020Z,18.04
2018-10-05T09:55:57.678Z,18.13
2018-10-05T09:58:27.393Z,18.22
2018-10-05T10:01:02.240Z,18.24
2018-10-05T10:03:33.718Z,18.42
2018-10-05T10:06:03.864Z,18.60
2018-10-05T10:08:33.556Z,18.59
2018-10-05T10:11:03.216Z,18.81
2018-10-05T10:13:32.916Z,18.98
2018-10-05T10:16:02.597Z,19.15
2018-10-05T10:18:32.280Z,19.27
2018-10-05T10:21:01.908Z,19.22
2018-10-05T10:23:31.616Z,19.39
2018-10-05T10:26:01.280Z,19.41
2018-10-05T10:28:31.004Z,19.49
2018-10-05T10:31:00.620Z,19.63
2018-10-05T10:33:30.287Z,19.72
2018-10-05T10:35:59.927Z,19.70
2018-10-05T10:38:29.573Z,19.59
2018-10-05T10:40:59.281Z,19.72
2018-10-05T10:43:28.940Z,19.78
2018-10-05T10:45:58.588Z,19.92
2018-10-05T10:48:28.241Z,20.29
2018-10-05T10:50:57.864Z,20.32
2018-10-05T10:53:27.541Z,20.23
2018-10-05T10:55:57.202Z,20.29
2018-10-05T10:58:26.906Z,20.47
2018-10-05T11:00:56.580Z,20.60
2018-10-05T11:03:26.246Z,20.28
2018-10-05T11:05:55.908Z,20.41
2018-10-05T11:08:25.652Z,20.61
2018-10-05T11:10:55.356Z,20.69
2018-10-05T11:13:24.983Z,20.67
2018-10-05T11:15:54.627Z,20.72
2018-10-05T11:18:24.284Z,20.58
2018-10-05T11:20:53.937Z,20.58
2018-10-05T11:23:23.662Z,20.68
2018-10-05T11:25:53.376Z,20.85
2018-10-05T11:28:23.046Z,20.83
2018-10-05T11:30:53.016Z,20.89
2018-10-05T11:33:22.715Z,21.08
2018-10-05T11:35:52.351Z,21.18
2018-10-05T11:38:22.008Z,21.29
2018-10-05T11:40:51.705Z,21.22
2018-10-05T11:43:21.592Z,21.02
2018-10-05T11:45:51.263Z,20.93
2018-10-05T11:48:20.933Z,21.09
2018-10-05T11:50:50.592Z,21.07
2018-10-05T11:53:20.240Z,21.24
2018-10-05T11:55:49.882Z,21.13
2018-10-05T11:58:19.596Z,21.03
2018-10-05T12:00:49.227Z,21.10
2018-10-05T12:03:18.871Z,21.25
2018-10-05T12:05:48.515Z,21.28
2018-10-05T12:08:18.212Z,21.42
2018-10-05T12:10:47.861Z,21.48
2018-10-05T12:13:17.535Z,21.26
2018-10-05T12:15:47.168Z,21.38
2018-10-05T12:18:16.849Z,21.36
2018-10-05T12:20:46.484Z,21.40
2018-10-05T12:23:16.148Z,21.51
2018-10-05T12:25:45.827Z,21.64
2018-10-05T12:28:15.596Z,21.62
2018-10-05T12:30:45.224Z,21.71
2018-10-05T12:33:14.904Z,21.75
2018-10-05T12:35:44.548Z,21.93
2018-10-05T12:38:14.192Z,21.91
2018-10-05T12:40:43.803Z,22.02
2018-10-05T12:43:13.484Z,21.97
2018-10-05T12:45:43.115Z,21.99
2018-10-05T12:48:12.752Z,22.02
2018-10-05T12:50:42.388Z,22.13
2018-10-05T12:53:12.056Z,22.16
2018-10-05T12:55:41.681Z,22.24
2018-10-05T12:58:11.417Z,22.37
2018-10-05T13:00:41.056Z,22.19
2018-10-05T13:03:10.704Z,22.38
2018-10-05T13:05:40.328Z,22.57
2018-10-05T13:08:09.979Z,22.58
2018-10-05T13:10:39.615Z,22.56
2018-10-05T13:13:09.349Z,22.55
2018-10-05T13:15:38.929Z,22.43
2018-10-05T13:18:09.126Z,22.47
2018-10-05T13:20:38.860Z,22.58
2018-10-05T13:23:08.792Z,22.74
2018-10-05T13:25:38.446Z,22.81
2018-10-05T13:28:08.312Z,22.72
2018-10-05T13:30:37.933Z,22.72
2018-10-05T13:33:07.636Z,22.93
2018-10-05T13:35:37.279Z,22.97
2018-10-05T13:38:07.012Z,23.10
2018-10-05T13:40:36.688Z,23.32
2018-10-05T13:43:06.392Z,23.46
2018-10-05T13:45:36.029Z,23.52
2018-10-05T13:48:05.716Z,23.74
2018-10-05T13:50:35.362Z,23.95
2018-10-05T13:53:05.027Z,23.85
2018-10-05T13:55:34.648Z,23.66
2018-10-05T13:58:04.308Z,23.82
2018-10-05T14:00:33.980Z,24.00
2018-10-05T14:03:03.637Z,23.85
2018-10-05T14:05:33.268Z,23.80
2018-10-05T14:08:02.941Z,23.71
2018-10-05T14:10:32.619Z,23.85
2018-10-05T14:13:02.269Z,23.89
2018-10-05T14:15:31.896Z,23.94
2018-10-05T14:18:01.540Z,24.05
2018-10-05T14:20:31.255Z,23.95
2018-10-05T14:23:00.840Z,23.93
2018-10-05T14:25:30.515Z,24.29
2018-10-05T14:28:00.211Z,24.52
2018-10-05T14:30:29.856Z,24.66
2018-10-05T14:32:59.518Z,24.45
2018-10-05T14:35:29.165Z,24.41
2018-10-05T14:37:58.866Z,24.66
2018-10-05T14:40:28.844Z,24.71
2018-10-05T14:42:58.500Z,24.78
2018-10-05T14:45:28.172Z,24.67
2018-10-05T14:47:57.824Z,24.50
2018-10-05T14:50:27.502Z,24.26
2018-10-05T14:52:57.155Z,24.06
2018-10-05T14:55:26.888Z,23.85
2018-10-05T14:57:56.538Z,23.75
2018-10-05T15:00:26.204Z,23.51
2018-10-05T15:02:55.881Z,23.30
2018-10-05T15:05:25.535Z,23.20
2018-10-05T15:07:55.186Z,23.04
2018-10-05T15:10:24.801Z,22.79
2018-10-05T15:12:54.574Z,22.66
2018-10-05T15:15:24.148Z,22.58
2018-10-05T15:17:53.808Z,22.46
2018-10-05T15:20:23.440Z,22.30
2018-10-05T15:22:53.092Z,22.20
2018-10-05T15:25:22.732Z,21.91
2018-10-05T15:27:52.371Z,21.92
2018-10-05T15:30:21.996Z,21.73
2018-10-05T15:32:51.703Z,21.65
2018-10-05T15:35:21.333Z,21.49
2018-10-05T15:37:51.083Z,21.45
2018-10-05T15:40:20.960Z,21.36
2018-10-05T15:42:50.613Z,21.24
2018-10-05T15:45:20.245Z,21.25
2018-10-05T15:47:50.807Z,21.09
2018-10-05T15:50:20.536Z,21.03
2018-10-05T15:52:50.260Z,21.01
2018-10-05T15:55:19.919Z,20.92
2018-10-05T15:57:49.576Z,20.76
2018-10-05T16:00:19.480Z,20.74
2018-10-05T16:02:49.161Z,20.64
2018-10-05T16:05:18.882Z,20.51
2018-10-05T16:07:48.592Z,20.48
2018-10-05T16:10:18.263Z,20.44
2018-10-05T16:12:47.925Z,20.39
2018-10-05T16:15:17.572Z,20.30
2018-10-05T16:17:47.232Z,20.22
2018-10-05T16:20:17.845Z,20.14
2018-10-05T16:22:47.595Z,20.14
2018-10-05T16:25:17.251Z,20.04
2018-10-05T16:27:46.952Z,19.99
2018-10-05T16:30:16.600Z,19.89
2018-10-05T16:32:46.278Z,19.78
2018-10-05T16:35:15.916Z,19.69
2018-10-05T16:37:45.581Z,19.59
2018-10-05T16:40:15.249Z,19.54
2018-10-05T16:42:44.887Z,19.40
2018-10-05T16:45:14.531Z,19.28
2018-10-05T16:47:44.220Z,19.27
2018-10-05T16:50:13.852Z,19.26
2018-10-05T16:52:43.528Z,19.13
2018-10-05T16:55:13.208Z,19.09
2018-10-05T16:57:42.855Z,19.02
2018-10-05T17:00:12.527Z,18.96
2018-10-05T17:02:42.180Z,18.86
2018-10-05T17:05:11.811Z,18.75
2018-10-05T17:07:41.498Z,18.62
2018-10-05T17:10:11.112Z,18.58
2018-10-05T17:12:40.777Z,18.45
2018-10-05T17:15:10.431Z,18.46
2018-10-05T17:17:40.104Z,18.35
2018-10-05T17:20:09.732Z,18.29
2018-10-05T17:22:39.381Z,18.25
2018-10-05T17:25:09.044Z,18.20
2018-10-05T17:27:38.682Z,18.12
2018-10-05T17:30:08.352Z,18.09
2018-10-05T17:32:37.971Z,18.12
2018-10-05T17:35:07.846Z,18.09
2018-10-05T17:37:37.436Z,18.04
2018-10-05T17:40:07.842Z,18.03
2018-10-05T17:42:37.587Z,18.04
2018-10-05T17:45:07.420Z,17.96
2018-10-05T17:47:37.056Z,17.98
2018-10-05T17:50:06.820Z,17.91
2018-10-05T17:52:36.440Z,17.88
2018-10-05T17:55:06.147Z,17.80
2018-10-05T17:57:35.792Z,17.68
2018-10-05T18:00:05.552Z,17.67
2018-10-05T18:02:35.188Z,17.52
2018-10-05T18:05:04.904Z,17.42
2018-10-05T18:07:34.597Z,17.33
2018-10-05T18:10:04.337Z,17.29
2018-10-05T18:12:33.971Z,17.18
2018-10-05T18:15:03.636Z,17.11
2018-10-05T18:17:33.291Z,17.06
2018-10-05T18:20:02.962Z,16.98
2018-10-05T18:22:32.611Z,16.87
2018-10-05T18:25:02.236Z,16.82
2018-10-05T18:27:31.876Z,16.77
2018-10-05T18:30:01.536Z,16.68
2018-10-05T18:32:31.203Z,16.61
2018-10-05T18:35:00.854Z,16.63
2018-10-05T18:37:30.501Z,16.58
2018-10-05T18:40:00.168Z,16.57
2018-10-05T18:42:29.833Z,16.54
2018-10-05T18:44:59.468Z,16.44
2018-10-05T18:47:29.145Z,16.38
2018-10-05T18:49:58.768Z,16.26
2018-10-05T18:52:28.428Z,16.26
2018-10-05T18:54:58.094Z,16.17
2018-10-05T18:57:27.779Z,16.20
2018-10-05T18:59:57.438Z,16.11
2018-10-05T19:02:27.200Z,16.01
2018-10-05T19:04:56.880Z,15.94
2018-10-05T19:07:26.550Z,15.94
2018-10-05T19:09:56.176Z,15.91
2018-10-05T19:12:25.836Z,15.81
2018-10-05T19:14:55.452Z,15.83
2018-10-05T19:17:25.116Z,15.66
2018-10-05T19:19:54.735Z,15.62
2018-10-05T19:22:24.461Z,15.58
2018-10-05T19:24:54.085Z,15.46
2018-10-05T19:27:23.738Z,15.30
2018-10-05T19:29:53.384Z,15.28
2018-10-05T19:32:23.032Z,15.18
2018-10-05T19:34:52.778Z,15.05
2018-10-05T19:37:22.545Z,15.12
2018-10-05T19:39:52.200Z,15.10
2018-10-05T19:42:21.887Z,15.14
2018-10-05T19:44:51.628Z,15.22
2018-10-05T19:47:21.321Z,15.22
2018-10-05T19:49:50.951Z,15.14
2018-10-05T19:52:20.580Z,15.16
2018-10-05T19:54:50.236Z,15.14
2018-10-05T19:57:20.030Z,15.14
2018-10-05T19:59:49.656Z,15.09
2018-10-05T20:02:19.360Z,15.00
2018-10-05T20:04:48.992Z,14.98
2018-10-05T20:07:18.778Z,14.95
2018-10-05T20:09:48.452Z,14.95
2018-10-05T20:12:18.124Z,14.83
2018-10-05T20:14:47.900Z,14.75
2018-10-05T20:17:17.684Z,14.78
2018-10-05T20:19:47.824Z,14.76
2018-10-05T20:22:17.486Z,14.77
2018-10-05T20:24:47.092Z,14.80
2018-10-05T20:27:16.704Z,14.77
2018-10-05T20:29:46.456Z,14.75
2018-10-05T20:32:16.076Z,14.73
2018-10-05T20:34:45.727Z,14.68
2018-10-05T20:37:15.492Z,14.62
2018-10-05T20:39:45.124Z,14.55
2018-10-05T20:42:14.856Z,14.59
2018-10-05T20:44:44.576Z,14.56
2018-10-05T20:47:14.242Z,14.56
2018-10-05T20:49:43.853Z,14.54
2018-10-05T20:52:13.552Z,14.57
2018-10-05T20:54:43.368Z,14.54
2018-10-05T20:57:13.111Z,14.51
2018-10-05T20:59:42.767Z,14.66
2018-10-05T21:02:12.812Z,14.66
2018-10-05T21:04:42.480Z,14.61
2018-10-05T21:07:12.096Z,14.58
2018-10-05T21:09:41.776Z,14.56
2018-10-05T21:12:11.400Z,14.58
2018-10-05T21:14:41.020Z,14.57
2018-10-05T21:17:10.749Z,14.55
2018-10-05T21:19:40.460Z,14.54
2018-10-05T21:22:10.089Z,14.53
2018-10-05T21:24:39.711Z,14.51
2018-10-05T21:27:09.372Z,14.43
2018-10-05T21:29:38.991Z,14.37
2018-10-05T21:32:08.601Z,14.41
2018-10-05T21:34:38.276Z,14.30
2018-10-05T21:37:07.909Z,14.35
2018-10-05T21:39:37.588Z,14.29
2018-10-05T21:42:07.295Z,14.28
2018-10-05T21:44:36.915Z,14.24
2018-10-05T21:47:06.563Z,14.18
2018-10-05T21:49:36.222Z,14.18
2018-10-05T21:52:05.920Z,14.20
2018-10-05T21:54:35.703Z,14.16
2018-10-05T21:57:05.413Z,14.15
2018-10-05T21:59:35.199Z,14.17
2018-10-05T22:02:04.857Z,14.19
2018-10-05T22:04:34.508Z,14.14
2018-10-05T22:07:04.123Z,14.11
2018-10-05T22:09:33.729Z,14.04
2018-10-05T22:12:03.412Z,14.07
2018-10-05T22:14:33.031Z,14.01
2018-10-05T22:17:02.648Z,13.98
2018-10-05T22:19:32.379Z,13.99
2018-10-05T22:22:01.982Z,13.96
2018-10-05T22:24:31.616Z,13.90
2018-10-05T22:27:01.276Z,13.90
2018-10-05T22:29:30.940Z,13.94
2018-10-05T22:32:00.552Z,14.02
2018-10-05T22:34:30.212Z,14.11
2018-10-05T22:36:59.827Z,14.10
2018-10-05T22:39:29.437Z,14.11
2018-10-05T22:41:59.675Z,14.03
2018-10-05T22:44:29.317Z,14.00
2018-10-05T22:46:59.315Z,14.04
2018-10-05T22:49:28.937Z,14.12
2018-10-05T22:51:58.556Z,14.13
2018-10-05T22:54:28.263Z,14.16
2018-10-05T22:56:57.864Z,14.21
2018-10-05T22:59:27.496Z,14.18
2018-10-05T23:01:57.207Z,14.13
2018-10-05T23:04:26.819Z,14.12
2018-10-05T23:06:56.431Z,14.11
2018-10-05T23:09:26.092Z,14.21
2018-10-05T23:11:55.708Z,14.15
2018-10-05T23:14:25.328Z,14.14
2018-10-05T23:16:54.992Z,14.13
2018-10-05T23:19:24.626Z,14.07
2018-10-05T23:21:54.320Z,14.09
2018-10-05T23:24:23.944Z,14.19
2018-10-05T23:26:53.588Z,14.10
2018-10-05T23:29:23.243Z,14.09
2018-10-05T23:31:52.852Z,14.03
2018-10-05T23:34:22.471Z,14.03
2018-10-05T23:36:52.139Z,14.01
2018-10-05T23:39:21.764Z,14.10
2018-10-05T23:41:51.368Z,14.12
2018-10-05T23:44:21.036Z,14.13
2018-10-05T23:46:50.667Z,14.10
2018-10-05T23:49:20.295Z,14.12
2018-10-05T23:51:50.125Z,14.20
2018-10-05T23:54:19.737Z,14.23
2018-10-05T23:56:49.348Z,14.30
2018-10-05T23:59:18.996Z,14.36
